Westphalia, Indiana
Current Conditions -  °F | °C
As of 10:15 PM on Sunday 21 Dec 2014 (Local Time) from KDCY Reporting Station
Clear Clear  
Wind Chill: 25°   Ceiling: Unl
Heat Index: 32°   Visibility: 7mi
Dew Point: 27°   Wind: 7mph
Humidity: 83%   Direction: 130°SE
Pressure: 30.06"   Gusts: NA
Location:  38.86°N, 87.23°W
Report Text: KDCY 220415Z AUTO 13006KT 7SM CLR 00/M03 A3006 RMK AO2 T10011027
Loading
Personal Weather Stations






























Interactive Weather Map New forecast layout! Learn more

10-Day Weather Forecast

Advertisements
Track Severe Weather on mobile